Time;durP1;ratioP1;P1;durP2;ratioP2;P2;SDS_P1;SDS_P2;PMS_P1;PMS_P2;Temp;Humidity;BMP_temperature;BMP_pressure;BME280_temperature;BME280_humidity;BME280_pressure;Samples;Min_cycle;Max_cycle;Signal;HPM_P1;HPM_P2
2021/04/11 00:00:32;;;;;;;11.90;3.57;;;;;;;1.71;93.51;100925.06;5033349;28;20221;-69
2021/04/11 00:02:58;;;;;;;14.60;3.57;;;;;;;1.72;93.59;100918.91;5033785;28;20255;-68
2021/04/11 00:05:26;;;;;;;11.83;3.77;;;;;;;1.76;94.16;100914.47;5033623;28;20206;-69
2021/04/11 00:07:52;;;;;;;12.07;3.97;;;;;;;1.71;94.55;100916.31;5033722;28;20278;-69
2021/04/11 00:10:21;;;;;;;15.27;4.07;;;;;;;1.72;94.69;100912.78;5032241;28;20605;-69
2021/04/11 00:12:47;;;;;;;20.17;4.87;;;;;;;1.65;95.13;100905.88;5033600;28;20649;-68
2021/04/11 00:15:13;;;;;;;16.87;4.90;;;;;;;1.68;95.11;100896.16;5031957;28;20201;-69
2021/04/11 00:17:38;;;;;;;14.47;4.50;;;;;;;1.64;95.36;100888.34;5033472;28;20181;-69
2021/04/11 00:20:05;;;;;;;11.43;3.70;;;;;;;1.71;95.63;100905.78;5033254;28;20587;-69
2021/04/11 00:22:30;;;;;;;20.53;5.23;;;;;;;1.72;95.51;100907.50;5033278;28;20178;-69
2021/04/11 00:24:56;;;;;;;19.17;5.40;;;;;;;1.81;95.66;100899.47;5033414;28;20173;-69
2021/04/11 00:27:21;;;;;;;18.40;5.80;;;;;;;1.78;95.79;100892.50;5033421;28;20247;-69
2021/04/11 00:29:46;;;;;;;17.67;5.57;;;;;;;1.80;96.03;100889.84;5032788;28;20808;-69
2021/04/11 00:32:13;;;;;;;21.47;6.00;;;;;;;1.81;95.96;100883.66;5033329;28;20170;-69
2021/04/11 00:34:38;;;;;;;20.10;6.43;;;;;;;1.74;96.36;100876.78;5033051;28;20559;-69
2021/04/11 00:37:04;;;;;;;22.67;6.77;;;;;;;1.78;97.01;100873.19;5033175;28;20173;-69
2021/04/11 00:39:29;;;;;;;24.43;6.27;;;;;;;1.84;97.20;100875.72;5033184;28;20208;-69
2021/04/11 00:42:05;;;;;;;16.33;6.40;;;;;;;1.84;97.08;100871.31;5033463;28;20170;-70
2021/04/11 00:44:30;;;;;;;26.40;6.90;;;;;;;1.82;97.25;100866.97;5032166;28;20163;-70
2021/04/11 00:46:57;;;;;;;29.43;7.03;;;;;;;1.77;96.72;100859.16;5032456;28;20224;-70
2021/04/11 00:49:25;;;;;;;24.07;6.53;;;;;;;1.76;96.88;100856.56;5031996;28;20218;-70
2021/04/11 00:51:50;;;;;;;21.77;7.07;;;;;;;1.76;97.75;100846.03;5033708;28;20646;-71
2021/04/11 00:54:16;;;;;;;25.97;7.57;;;;;;;1.76;97.77;100835.50;5034143;28;20209;-70
2021/04/11 00:56:41;;;;;;;17.60;5.93;;;;;;;1.80;98.37;100826.66;5034492;28;20177;-70
2021/04/11 00:59:07;;;;;;;23.20;6.47;;;;;;;1.74;97.70;100818.88;5033520;28;20206;-70
2021/04/11 01:01:33;;;;;;;26.17;7.10;;;;;;;1.79;98.29;100824.94;5033409;28;20174;-70
2021/04/11 01:03:59;;;;;;;30.00;7.93;;;;;;;1.78;98.69;100807.41;5033823;28;20172;-70
2021/04/11 01:06:34;;;;;;;25.00;7.50;;;;;;;1.80;98.96;100816.16;5031747;28;20231;-70
2021/04/11 01:09:00;;;;;;;23.20;7.83;;;;;;;1.78;99.08;100794.25;5031548;28;20198;-70
2021/04/11 01:11:28;;;;;;;17.60;7.17;;;;;;;1.84;98.76;100794.13;5031876;28;20175;-70
2021/04/11 01:13:57;;;;;;;32.90;8.30;;;;;;;1.89;99.22;100794.94;5015030;28;20272;-70
2021/04/11 01:16:22;;;;;;;23.10;7.77;;;;;;;1.93;98.81;100783.47;5014986;28;20174;-71
2021/04/11 01:18:49;;;;;;;25.60;8.53;;;;;;;1.93;98.91;100783.47;5014939;28;20173;-71
2021/04/11 01:21:22;;;;;;;26.83;9.47;;;;;;;1.96;98.92;100764.97;5031373;28;20505;-70
2021/04/11 01:23:55;;;;;;;25.93;8.80;;;;;;;1.91;99.01;100777.38;5031956;28;20185;-71
2021/04/11 01:26:20;;;;;;;23.23;8.57;;;;;;;1.92;99.11;100772.97;5031428;28;20158;-71
2021/04/11 01:28:47;;;;;;;26.07;9.47;;;;;;;2.10;98.97;100762.94;5032501;28;20179;-70
2021/04/11 01:31:14;;;;;;;25.60;8.10;;;;;;;2.05;98.77;100758.66;5031370;28;20171;-71
2021/04/11 01:33:43;;;;;;;25.27;8.70;;;;;;;2.03;98.65;100755.19;5031507;28;20528;-70
2021/04/11 01:36:11;;;;;;;32.10;9.90;;;;;;;1.97;98.96;100748.28;5031396;28;20198;-70
2021/04/11 01:38:38;;;;;;;28.40;10.07;;;;;;;2.04;98.92;100757.81;5031478;28;20537;-70
2021/04/11 01:41:08;;;;;;;31.23;9.77;;;;;;;2.06;98.66;100745.47;5031212;28;20639;-69
2021/04/11 01:43:34;;;;;;;26.57;9.23;;;;;;;1.96;98.71;100738.66;5035400;28;20186;-69
2021/04/11 01:46:00;;;;;;;28.60;9.63;;;;;;;1.96;99.00;100733.41;5036288;28;20172;-71
2021/04/11 01:48:25;;;;;;;21.80;8.57;;;;;;;2.12;99.43;100737.44;5034958;28;20685;-69
2021/04/11 01:50:51;;;;;;;35.10;9.50;;;;;;;2.07;99.47;100733.19;5034713;28;20691;-70
2021/04/11 01:53:18;;;;;;;26.00;8.63;;;;;;;2.10;99.36;100738.38;5034896;28;20260;-70
2021/04/11 01:55:43;;;;;;;31.77;9.40;;;;;;;2.02;99.59;100725.38;5034953;28;20221;-70
2021/04/11 01:58:11;;;;;;;35.70;9.43;;;;;;;2.05;99.40;100722.69;5035073;28;20648;-70
2021/04/11 02:00:39;;;;;;;22.70;9.27;;;;;;;2.02;99.73;100720.09;5034788;28;20190;-70
2021/04/11 02:03:14;;;;;;;22.10;8.30;;;;;;;2.10;99.76;100715.56;5018098;28;20175;-70
2021/04/11 02:05:46;;;;;;;26.90;8.93;;;;;;;2.04;100.00;100707.78;5036212;28;20158;-70
2021/04/11 02:08:14;;;;;;;29.13;10.20;;;;;;;2.03;99.98;100708.69;5036172;28;20163;-70
2021/04/11 02:10:42;;;;;;;27.13;9.17;;;;;;;2.16;100.00;100693.50;5034414;28;20294;-70
2021/04/11 02:13:08;;;;;;;25.47;8.87;;;;;;;2.16;100.00;100694.34;5034509;28;20226;-70
2021/04/11 02:15:35;;;;;;;25.67;8.83;;;;;;;2.27;99.71;100685.38;5035578;28;20314;-70
2021/04/11 02:18:00;;;;;;;17.33;8.50;;;;;;;2.15;99.84;100679.47;5017885;28;20171;-70
2021/04/11 02:20:27;;;;;;;27.17;9.20;;;;;;;2.16;100.00;100672.44;5036454;28;20241;-69
2021/04/11 02:22:53;;;;;;;27.47;9.53;;;;;;;2.14;100.00;100675.09;5039242;28;20185;-70
2021/04/11 02:25:21;;;;;;;27.43;9.00;;;;;;;2.23;100.00;100678.41;5038043;28;20501;-70
2021/04/11 02:27:47;;;;;;;28.23;10.00;;;;;;;2.14;99.95;100668.97;5034138;28;20178;-69
2021/04/11 02:30:15;;;;;;;32.17;9.43;;;;;;;2.17;100.00;100666.25;5034271;28;20201;-70
2021/04/11 02:32:42;;;;;;;26.03;9.43;;;;;;;2.30;99.77;100669.53;5034087;28;20655;-70
2021/04/11 02:35:12;;;;;;;22.10;9.40;;;;;;;2.37;99.59;100666.72;5034102;28;20205;-70
2021/04/11 02:37:39;;;;;;;19.43;8.67;;;;;;;2.32;99.81;100659.81;5033978;28;20240;-70
2021/04/11 02:40:08;;;;;;;24.30;8.93;;;;;;;2.31;99.36;100650.19;5017341;28;20240;-70
2021/04/11 02:42:34;;;;;;;22.03;9.07;;;;;;;2.29;99.63;100637.03;5017955;28;20271;-70
2021/04/11 02:45:10;;;;;;;37.50;10.20;;;;;;;2.22;99.69;100650.34;5034019;28;20622;-70
2021/04/11 02:47:35;;;;;;;24.73;8.87;;;;;;;2.27;99.87;100638.84;5017251;28;20178;-70
2021/04/11 02:50:01;;;;;;;24.27;9.40;;;;;;;2.31;100.00;100629.97;5033682;28;20297;-70
2021/04/11 02:52:30;;;;;;;34.47;10.40;;;;;;;2.28;100.00;100623.91;5033349;28;20232;-71
2021/04/11 02:54:57;;;;;;;28.47;10.43;;;;;;;2.31;100.00;100616.81;5034090;28;20207;-71
2021/04/11 02:57:23;;;;;;;20.90;10.73;;;;;;;2.48;100.00;100605.88;5033712;28;20642;-72
2021/04/11 02:59:52;;;;;;;25.90;11.03;;;;;;;2.51;100.00;100603.16;5034857;28;20201;-71
2021/04/11 03:02:18;;;;;;;25.87;9.60;;;;;;;2.61;98.86;100603.84;5033854;28;20532;-71
2021/04/11 03:04:43;;;;;;;25.43;10.03;;;;;;;2.42;99.43;100606.88;5035044;28;20171;-71
2021/04/11 03:07:13;;;;;;;21.87;10.30;;;;;;;2.56;98.73;100597.78;5033352;28;20226;-71
2021/04/11 03:09:45;;;;;;;26.30;10.93;;;;;;;2.51;97.89;100595.25;5016519;28;20194;-70
2021/04/11 03:12:11;;;;;;;23.87;11.73;;;;;;;2.65;97.07;100587.03;5033250;28;20301;-70
2021/04/11 03:14:38;;;;;;;22.00;11.27;;;;;;;2.73;97.32;100585.94;5033254;28;20253;-70
2021/04/11 03:17:09;;;;;;;24.67;12.20;;;;;;;2.80;96.77;100578.75;5033173;28;20178;-69
2021/04/11 03:19:39;;;;;;;24.97;12.00;;;;;;;2.78;96.58;100581.41;5034199;28;20213;-70
2021/04/11 03:22:04;;;;;;;19.37;11.87;;;;;;;2.75;96.89;100578.88;5033116;28;20160;-71
2021/04/11 03:24:30;;;;;;;29.53;12.80;;;;;;;2.69;97.51;100592.19;5033062;28;20225;-70
2021/04/11 03:27:13;;;;;;;27.27;12.93;;;;;;;2.80;97.06;100573.47;5032954;28;20666;-69
2021/04/11 03:29:49;;;;;;;26.57;12.83;;;;;;;2.86;96.47;100573.31;5032789;28;20202;-69
2021/04/11 03:32:28;;;;;;;28.63;12.83;;;;;;;2.82;96.70;100572.53;5033086;28;20535;-69
2021/04/11 03:34:55;;;;;;;21.57;12.57;;;;;;;2.87;96.29;100566.28;5032619;28;20549;-69
2021/04/11 03:37:21;;;;;;;24.90;13.60;;;;;;;2.79;96.81;100563.84;5033006;28;20228;-69
2021/04/11 03:39:47;;;;;;;26.00;14.07;;;;;;;2.88;96.74;100554.81;5032915;28;20192;-70
2021/04/11 03:42:20;;;;;;;30.43;14.23;;;;;;;2.83;96.41;100549.66;5032971;28;20169;-70
2021/04/11 03:44:46;;;;;;;28.13;13.57;;;;;;;2.81;97.27;100541.81;5032754;28;20191;-70
2021/04/11 03:47:17;;;;;;;30.67;13.93;;;;;;;2.86;97.03;100541.69;5032647;28;20225;-69
2021/04/11 03:49:53;;;;;;;27.37;14.90;;;;;;;2.77;97.76;100529.63;5032465;28;20223;-70
2021/04/11 03:52:37;;;;;;;47.27;16.93;;;;;;;2.74;98.42;100529.69;5032787;28;20219;-70
2021/04/11 03:55:05;;;;;;;31.07;16.23;;;;;;;2.94;97.84;100523.03;5032661;28;20154;-70
2021/04/11 03:57:47;;;;;;;26.83;15.23;;;;;;;2.96;96.69;100513.31;5033429;28;20488;-70
2021/04/11 04:00:13;;;;;;;30.93;16.97;;;;;;;2.97;97.06;100515.03;5016667;28;20194;-69
2021/04/11 04:02:40;;;;;;;32.27;16.33;;;;;;;3.01;97.17;100519.34;5032569;28;20178;-70
2021/04/11 04:05:07;;;;;;;31.73;16.37;;;;;;;3.03;97.61;100502.56;5032944;28;20199;-70
2021/04/11 04:07:47;;;;;;;28.90;16.90;;;;;;;3.08;97.00;100507.72;5032159;28;20179;-69
2021/04/11 04:10:13;;;;;;;30.63;18.27;;;;;;;3.09;97.36;100509.44;5032385;28;20203;-69
2021/04/11 04:13:02;;;;;;;31.57;17.60;;;;;;;3.19;97.56;100504.78;5032121;28;20183;-70
2021/04/11 04:16:11;;;;;;;33.77;19.73;;;;;;;3.14;97.22;100503.13;5032314;28;20169;-70
2021/04/11 04:19:05;;;;;;;43.73;19.77;;;;;;;3.11;97.53;100505.84;4956969;28;20212;-70
2021/04/11 04:21:54;;;;;;;33.13;18.83;;;;;;;3.24;97.39;100502.88;5032104;28;20516;-70
2021/04/11 04:24:40;;;;;;;33.43;19.37;;;;;;;3.33;96.43;100494.69;5021331;28;20301;-70
2021/04/11 04:27:33;;;;;;;34.90;20.53;;;;;;;3.30;97.13;100487.72;5032180;28;20187;-70
2021/04/11 04:30:20;;;;;;;38.73;21.60;;;;;;;3.38;96.67;100495.44;4998123;28;20210;-70
2021/04/11 04:32:48;;;;;;;35.60;22.20;;;;;;;3.38;97.08;100492.81;5015330;28;20265;-69
2021/04/11 04:35:38;;;;;;;37.80;22.93;;;;;;;3.42;97.01;100483.91;5032957;28;20277;-70
2021/04/11 04:38:13;;;;;;;36.27;22.87;;;;;;;3.49;97.46;100481.94;5015466;28;20162;-70
2021/04/11 04:40:54;;;;;;;43.83;25.40;;;;;;;3.58;97.63;100477.25;5031843;28;20194;-70
2021/04/11 04:43:30;;;;;;;49.70;26.77;;;;;;;3.63;97.47;100480.59;5033064;28;20159;-70
2021/04/11 04:46:17;;;;;;;45.33;27.33;;;;;;;3.66;97.61;100469.94;5031781;28;20230;-70
2021/04/11 04:48:51;;;;;;;53.40;30.60;;;;;;;3.66;98.07;100466.44;5015444;28;20175;-70
2021/04/11 04:51:26;;;;;;;61.40;34.73;;;;;;;3.70;99.38;100471.59;5032304;28;20545;-70
2021/04/11 04:54:10;;;;;;;72.47;35.63;;;;;;;3.72;99.81;100472.44;5032081;28;20163;-70
2021/04/11 04:56:44;;;;;;;66.63;35.60;;;;;;;3.82;99.90;100467.72;5031695;28;20167;-70
2021/04/11 04:59:22;;;;;;;66.90;36.27;;;;;;;3.97;99.81;100466.38;5031982;28;20528;-70
2021/04/11 05:02:02;;;;;;;68.03;38.23;;;;;;;3.96;99.44;100467.28;5032265;28;20170;-70
2021/04/11 05:04:28;;;;;;;69.33;40.20;;;;;;;4.17;99.48;100458.69;5015403;28;20242;-71
2021/04/11 05:07:00;;;;;;;69.93;39.27;;;;;;;4.21;98.94;100452.38;5032402;28;20180;-71
2021/04/11 05:09:40;;;;;;;84.63;43.00;;;;;;;4.29;99.43;100445.06;5033305;28;20274;-70
2021/04/11 05:12:30;;;;;;;89.63;42.57;;;;;;;4.24;99.37;100446.13;5033812;28;20191;-70
2021/04/11 05:14:59;;;;;;;85.00;43.53;;;;;;;4.28;99.43;100445.97;5032053;28;20222;-70
2021/04/11 05:17:29;;;;;;;85.53;44.70;;;;;;;4.28;99.43;100443.34;5019241;28;20207;-70
2021/04/11 05:20:10;;;;;;;79.43;44.13;;;;;;;4.38;99.62;100449.16;5035821;28;20215;-69
2021/04/11 05:22:40;;;;;;;86.53;44.47;;;;;;;4.33;99.80;100443.19;5036098;28;20187;-69
2021/04/11 05:25:32;;;;;;;67.17;42.03;;;;;;;4.50;99.33;100440.00;5036180;28;20199;-70
2021/04/11 05:28:20;;;;;;;82.60;44.67;;;;;;;4.57;99.35;100433.56;5019168;28;20172;-71
2021/04/11 05:30:49;;;;;;;71.90;43.00;;;;;;;4.59;99.00;100443.16;5019440;28;20541;-71
2021/04/11 05:33:18;;;;;;;78.40;43.70;;;;;;;4.62;99.26;100439.56;5036029;28;20172;-70
2021/04/11 05:35:44;;;;;;;68.97;41.97;;;;;;;4.64;98.81;100433.28;5037013;28;20161;-70
2021/04/11 05:38:16;;;;;;;74.57;43.43;;;;;;;4.79;98.42;100426.59;5035815;28;20211;-70
2021/04/11 05:40:51;;;;;;;65.77;41.77;;;;;;;4.90;97.01;100423.59;5035531;28;20203;-71
2021/04/11 05:43:23;;;;;;;77.53;46.07;;;;;;;4.80;98.14;100415.09;5035149;28;20160;-70
2021/04/11 05:46:07;;;;;;;80.87;46.17;;;;;;;4.72;98.31;100412.72;5035870;28;20231;-71
2021/04/11 05:48:51;;;;;;;102.53;48.60;;;;;;;4.62;99.90;100414.00;5037029;28;20239;-70
2021/04/11 05:51:17;;;;;;;85.00;49.37;;;;;;;4.83;99.18;100414.13;5036797;28;20168;-70
2021/04/11 05:53:50;;;;;;;83.87;50.17;;;;;;;4.81;98.91;100415.97;5035445;28;20187;-70
2021/04/11 05:56:27;;;;;;;75.93;47.00;;;;;;;5.03;98.62;100414.28;5035722;28;20176;-69
2021/04/11 05:58:57;;;;;;;91.23;49.87;;;;;;;4.96;98.82;100418.94;5018911;28;20168;-70
2021/04/11 06:01:27;;;;;;;98.37;51.13;;;;;;;4.88;98.99;100412.19;5034746;28;20168;-70
2021/04/11 06:04:04;;;;;;;89.13;49.77;;;;;;;4.99;98.88;100410.03;5034578;28;20247;-69
2021/04/11 06:06:34;;;;;;;87.37;51.20;;;;;;;5.09;99.31;100410.53;5034510;28;20180;-70
2021/04/11 06:09:05;;;;;;;77.80;49.43;;;;;;;5.16;98.71;100404.97;5034688;28;20191;-71
2021/04/11 06:11:48;;;;;;;83.27;50.30;;;;;;;5.27;98.08;100404.56;5034637;28;20187;-71
2021/04/11 06:14:34;;;;;;;86.87;52.57;;;;;;;5.26;98.89;100414.31;5034911;28;20595;-70
2021/04/11 06:17:04;;;;;;;84.23;52.40;;;;;;;5.50;98.25;100399.25;5035081;28;20255;-70
2021/04/11 06:19:29;;;;;;;98.83;52.63;;;;;;;5.45;98.11;100413.59;5036163;28;20208;-71
2021/04/11 06:22:18;;;;;;;84.20;51.73;;;;;;;5.58;97.95;100398.97;5035786;28;20179;-71
2021/04/11 06:24:50;;;;;;;82.03;50.57;;;;;;;5.66;98.35;100394.22;5034637;28;20192;-74
2021/04/11 06:27:36;;;;;;;78.33;51.47;;;;;;;5.82;97.16;100392.69;5035609;28;20176;-71
2021/04/11 06:30:25;;;;;;;78.40;50.20;;;;;;;5.87;97.47;100380.09;5036149;28;20672;-70
2021/04/11 06:32:58;;;;;;;72.07;48.13;;;;;;;5.88;95.21;100381.84;5023134;28;20557;-72
2021/04/11 06:35:27;;;;;;;73.17;47.07;;;;;;;5.91;95.33;100371.16;5035952;28;20167;-70
2021/04/11 06:37:55;;;;;;;77.07;48.70;;;;;;;5.81;96.37;100369.78;5035968;28;20298;-70
2021/04/11 06:40:34;;;;;;;75.73;49.20;;;;;;;5.88;97.21;100362.44;5035244;28;20188;-70
2021/04/11 06:43:09;;;;;;;85.73;52.57;;;;;;;5.80;97.82;100364.53;5037795;28;20168;-71
2021/04/11 06:46:10;;;;;;;70.57;46.57;;;;;;;5.98;96.56;100352.38;5035863;28;20274;-69
2021/04/11 06:48:59;;;;;;;71.57;46.53;;;;;;;6.13;95.45;100346.41;4985037;28;20192;-70
2021/04/11 06:51:35;;;;;;;67.00;46.67;;;;;;;6.21;95.00;100352.25;5035262;28;20529;-69
2021/04/11 06:54:16;;;;;;;78.47;49.77;;;;;;;6.20;94.96;100340.78;5036211;28;20183;-73
2021/04/11 06:56:56;;;;;;;66.00;45.87;;;;;;;6.53;94.64;100340.25;5035752;28;20187;-71
2021/04/11 06:59:59;;;;;;;69.27;47.40;;;;;;;6.70;93.94;100331.56;5017929;28;20214;-70
2021/04/11 07:02:46;;;;;;;64.83;44.17;;;;;;;6.90;92.84;100336.81;5035132;28;20633;-68
2021/04/11 07:05:13;;;;;;;69.33;46.90;;;;;;;6.94;93.47;100327.78;5034895;28;20192;-68
2021/04/11 07:07:38;;;;;;;77.37;46.97;;;;;;;6.95;94.97;100324.19;5035249;28;20595;-69
2021/04/11 07:10:09;;;;;;;66.00;44.10;;;;;;;6.92;94.33;100319.03;5035576;28;20222;-68
2021/04/11 07:12:56;;;;;;;70.13;44.87;;;;;;;6.93;94.62;100325.22;5035340;28;20260;-68
2021/04/11 07:15:49;;;;;;;66.60;44.17;;;;;;;7.07;94.93;100312.19;5035210;28;20222;-69
2021/04/11 07:18:32;;;;;;;59.40;41.37;;;;;;;7.11;93.77;100313.75;5035582;28;20160;-69
2021/04/11 07:21:14;;;;;;;58.93;41.07;;;;;;;7.07;94.04;100320.16;5034999;28;20212;-69
2021/04/11 07:24:31;;;;;;;62.80;41.23;;;;;;;7.06;92.91;100313.09;5033654;28;20527;-69
2021/04/11 07:27:02;;;;;;;57.27;41.70;;;;;;;7.15;92.71;100321.50;5001553;28;20634;-69
2021/04/11 07:29:53;;;;;;;62.53;43.47;;;;;;;7.31;92.45;100305.69;5016562;28;20208;-69
2021/04/11 07:32:47;;;;;;;62.07;40.60;;;;;;;7.22;92.21;100300.84;5033757;28;20164;-68
2021/04/11 07:35:24;;;;;;;60.03;42.13;;;;;;;7.38;91.90;100308.91;5034508;28;20162;-68
2021/04/11 07:38:05;;;;;;;62.40;40.93;;;;;;;7.50;91.96;100303.91;5033381;28;20157;-68
2021/04/11 07:40:46;;;;;;;61.17;43.00;;;;;;;7.48;93.44;100302.25;5034141;28;20200;-68
2021/04/11 07:43:24;;;;;;;61.37;42.93;;;;;;;7.71;91.69;100296.66;5034670;28;20192;-68
2021/04/11 07:46:12;;;;;;;59.13;41.10;;;;;;;7.77;90.78;100298.13;5033329;28;20219;-68
2021/04/11 07:48:55;;;;;;;73.50;46.50;;;;;;;7.85;91.79;100290.66;5034317;28;20181;-68
2021/04/11 07:51:29;;;;;;;57.13;41.77;;;;;;;8.09;91.64;100288.56;5016693;28;20166;-68
2021/04/11 07:54:32;;;;;;;58.83;41.53;;;;;;;7.81;91.91;100284.66;5033761;28;20214;-68
2021/04/11 07:57:25;;;;;;;58.90;40.83;;;;;;;7.71;91.55;100278.06;5034471;28;20178;-68
2021/04/11 08:00:17;;;;;;;65.17;45.03;;;;;;;7.77;93.31;100282.19;5034030;28;20727;-68
2021/04/11 08:03:01;;;;;;;64.40;43.00;;;;;;;7.74;91.26;100277.91;5032686;28;20166;-69
2021/04/11 08:05:50;;;;;;;54.97;39.53;;;;;;;7.75;91.22;100279.63;5032980;28;20222;-68
2021/04/11 08:08:52;;;;;;;68.40;45.10;;;;;;;7.80;92.22;100285.59;5032501;28;20630;-68
2021/04/11 08:11:51;;;;;;;74.40;47.50;;;;;;;7.99;93.52;100288.16;5034121;28;20255;-68
2021/04/11 08:14:35;;;;;;;50.50;36.30;;;;;;;7.96;89.83;100287.47;5033527;28;20236;-69
2021/04/11 08:17:19;;;;;;;50.63;37.00;;;;;;;7.88;89.74;100282.53;5033859;28;20691;-69
2021/04/11 08:19:49;;;;;;;65.20;44.83;;;;;;;7.82;92.39;100283.72;5032535;28;20205;-68
2021/04/11 08:22:28;;;;;;;60.23;41.83;;;;;;;8.23;89.79;100291.38;5015988;28;20179;-68
2021/04/11 08:25:03;;;;;;;54.83;36.87;;;;;;;8.70;88.71;100290.69;5032262;28;20194;-68
2021/04/11 08:27:42;;;;;;;51.73;37.33;;;;;;;8.73;90.08;100285.22;5015988;28;20532;-68
2021/04/11 08:30:23;;;;;;;45.83;33.43;;;;;;;9.37;85.84;100274.53;5031933;28;20209;-69
2021/04/11 08:33:00;;;;;;;43.27;30.57;;;;;;;9.54;83.69;100268.22;5032384;28;20251;-69
2021/04/11 08:36:03;;;;;;;45.10;29.33;;;;;;;9.36;84.25;100259.50;5032222;28;20172;-68
2021/04/11 08:38:45;;;;;;;33.90;26.77;;;;;;;9.57;82.20;100260.06;5033575;28;20171;-68
2021/04/11 08:41:37;;;;;;;42.63;28.60;;;;;;;9.92;81.12;100254.47;5032454;28;20187;-70
2021/04/11 08:44:28;;;;;;;37.33;25.77;;;;;;;10.06;81.47;100254.53;5033133;28;20184;-68
2021/04/11 08:47:31;;;;;;;32.53;25.23;;;;;;;10.18;76.90;100251.13;5033189;28;20605;-68
2021/04/11 08:50:02;;;;;;;32.83;24.20;;;;;;;10.17;75.91;100236.06;5033380;28;20196;-70
2021/04/11 08:52:43;;;;;;;31.23;22.93;;;;;;;10.55;75.36;100252.44;5021593;28;20190;-68
2021/04/11 08:55:29;;;;;;;34.97;22.27;;;;;;;11.11;72.79;100244.44;5039649;28;20168;-68
2021/04/11 08:58:08;;;;;;;30.30;22.77;;;;;;;11.19;70.88;100259.06;5040050;28;20160;-68
2021/04/11 09:00:41;;;;;;;30.30;21.87;;;;;;;11.44;71.77;100250.28;5021768;28;20199;-69
2021/04/11 09:03:37;;;;;;;30.63;21.20;;;;;;;11.79;69.94;100253.31;5038900;28;20157;-69
2021/04/11 09:06:38;;;;;;;30.47;22.10;;;;;;;11.73;69.09;100266.22;5038495;28;20262;-70
2021/04/11 09:09:45;;;;;;;34.13;21.83;;;;;;;11.96;66.30;100278.94;5038177;28;20695;-68
2021/04/11 09:12:25;;;;;;;29.77;20.17;;;;;;;12.31;66.65;100256.97;5031111;28;20194;-69
2021/04/11 09:15:08;;;;;;;27.17;20.23;;;;;;;12.44;64.01;100281.91;5039232;28;20191;-69
2021/04/11 09:17:47;;;;;;;26.87;19.70;;;;;;;11.88;64.55;100251.84;5038044;28;20157;-70
2021/04/11 09:20:18;;;;;;;28.27;19.87;;;;;;;12.05;63.95;100262.28;5039227;28;20207;-70
2021/04/11 09:22:57;;;;;;;31.33;20.37;;;;;;;11.89;65.12;100272.28;5038667;28;20243;-71
2021/04/11 09:25:25;;;;;;;27.70;20.60;;;;;;;11.74;65.96;100275.94;5038097;28;20176;-70
2021/04/11 09:28:30;;;;;;;27.43;20.37;;;;;;;12.12;64.19;100266.22;5038106;28;20318;-70
2021/04/11 09:31:28;;;;;;;33.47;20.23;;;;;;;12.14;65.12;100272.34;5008306;28;20204;-71
2021/04/11 09:34:14;;;;;;;27.90;20.57;;;;;;;12.44;64.66;100261.34;5037935;28;20505;-71
2021/04/11 09:36:47;;;;;;;27.47;19.13;;;;;;;12.93;64.34;100262.38;5038414;28;20250;-71
2021/04/11 09:39:23;;;;;;;26.87;18.93;;;;;;;12.81;63.96;100267.66;5039158;28;20220;-71
2021/04/11 09:42:03;;;;;;;26.57;18.57;;;;;;;13.51;61.18;100259.03;5039913;28;20160;-72
2021/04/11 09:44:53;;;;;;;22.63;17.53;;;;;;;13.90;60.46;100255.19;5021486;28;20191;-72
2021/04/11 09:47:33;;;;;;;24.87;17.87;;;;;;;13.54;61.01;100257.94;5038856;28;20164;-71
2021/04/11 09:50:16;;;;;;;24.90;18.37;;;;;;;13.19;62.35;100242.63;5039478;28;20196;-70
2021/04/11 09:53:03;;;;;;;27.57;18.03;;;;;;;14.12;60.47;100249.03;5038535;28;20157;-71
2021/04/11 09:55:39;;;;;;;23.77;17.60;;;;;;;14.35;58.11;100255.31;5038043;28;20206;-71
2021/04/11 09:58:32;;;;;;;28.53;17.57;;;;;;;14.36;58.06;100257.03;5039209;28;20164;-71
2021/04/11 10:01:19;;;;;;;23.83;17.10;;;;;;;13.97;58.90;100247.53;5038548;28;20257;-71
2021/04/11 10:04:28;;;;;;;25.77;16.00;;;;;;;14.19;57.50;100260.16;5033963;28;20263;-71
2021/04/11 10:07:27;;;;;;;21.90;14.50;;;;;;;15.00;56.18;100251.97;5035861;28;20172;-70
2021/04/11 10:09:59;;;;;;;22.23;15.57;;;;;;;14.72;56.64;100258.69;5034694;28;20196;-72
2021/04/11 10:12:46;;;;;;;21.40;15.23;;;;;;;14.98;56.48;100259.31;5034946;28;20184;-72
2021/04/11 10:15:29;;;;;;;26.13;15.47;;;;;;;15.27;53.93;100273.94;5034663;28;20214;-71
2021/04/11 10:18:19;;;;;;;23.53;15.00;;;;;;;13.88;57.22;100275.91;5035861;28;20180;-72
2021/04/11 10:20:55;;;;;;;20.53;14.73;;;;;;;14.50;56.54;100259.53;5035974;28;20247;-72
2021/04/11 10:23:21;;;;;;;19.93;14.77;;;;;;;14.38;56.34;100253.25;5035390;28;20164;-71
2021/04/11 10:25:51;;;;;;;20.20;14.30;;;;;;;14.38;56.29;100257.75;5035029;28;20208;-71
2021/04/11 10:28:26;;;;;;;22.00;14.07;;;;;;;14.61;56.25;100242.59;5034579;28;20157;-71
2021/04/11 10:31:10;;;;;;;22.33;14.93;;;;;;;14.55;56.32;100251.97;5036009;28;20675;-71
2021/04/11 10:33:51;;;;;;;19.20;14.57;;;;;;;13.33;59.44;100246.97;5035865;28;20191;-70
2021/04/11 10:36:29;;;;;;;22.33;15.93;;;;;;;13.77;58.62;100238.31;5034572;28;20306;-71
2021/04/11 10:39:06;;;;;;;22.83;15.90;;;;;;;13.39;59.53;100250.09;5034284;28;20160;-71
2021/04/11 10:42:19;;;;;;;22.53;15.40;;;;;;;13.64;59.10;100249.09;5034286;28;20659;-71
2021/04/11 10:45:07;;;;;;;22.53;15.77;;;;;;;13.87;58.85;100227.75;4981448;28;20686;-71
2021/04/11 10:47:39;;;;;;;24.70;15.43;;;;;;;13.97;58.64;100242.16;5033997;28;20263;-70
2021/04/11 10:50:40;;;;;;;22.43;16.17;;;;;;;14.30;57.46;100241.41;5034198;28;20623;-70
2021/04/11 10:53:44;;;;;;;20.67;14.73;;;;;;;14.85;55.38;100237.94;5006884;28;20188;-71
2021/04/11 10:56:34;;;;;;;30.03;16.43;;;;;;;14.66;56.95;100248.44;5031734;28;20191;-70
2021/04/11 10:59:05;;;;;;;17.77;13.90;;;;;;;14.63;56.19;100249.53;5034924;28;20199;-71
2021/04/11 11:01:51;;;;;;;23.73;15.60;;;;;;;14.84;54.66;100230.00;5033040;28;20176;-70
2021/04/11 11:04:36;;;;;;;20.77;13.77;;;;;;;15.98;52.25;100230.44;5034835;28;20192;-70
2021/04/11 11:07:17;;;;;;;18.73;14.13;;;;;;;17.46;49.31;100226.34;5033655;28;20167;-70
2021/04/11 11:09:46;;;;;;;17.43;13.17;;;;;;;18.03;46.81;100239.06;5034805;28;20195;-71
2021/04/11 11:12:27;;;;;;;19.87;13.70;;;;;;;19.19;44.96;100237.88;5033616;28;20620;-70
2021/04/11 11:15:14;;;;;;;22.50;15.60;;;;;;;17.96;47.67;100227.13;5032998;28;20168;-70
2021/04/11 11:17:42;;;;;;;18.87;14.23;;;;;;;17.61;47.27;100222.25;5034842;28;20175;-71
2021/04/11 11:20:24;;;;;;;20.23;13.13;;;;;;;18.91;45.26;100228.91;5034360;28;20582;-71
2021/04/11 11:23:07;;;;;;;17.90;12.93;;;;;;;19.61;44.38;100233.66;5033348;28;20179;-71
2021/04/11 11:25:51;;;;;;;17.93;12.87;;;;;;;22.77;37.40;100240.59;5034470;28;20595;-71
2021/04/11 11:28:28;;;;;;;14.70;11.47;;;;;;;22.38;38.26;100224.16;5034292;28;20527;-71
2021/04/11 11:31:20;;;;;;;19.93;12.77;;;;;;;20.69;41.46;100237.94;5034398;28;20195;-71
2021/04/11 11:34:01;;;;;;;16.20;11.80;;;;;;;19.57;42.85;100234.97;5016512;28;20226;-72
2021/04/11 11:36:30;;;;;;;17.90;12.30;;;;;;;19.35;43.02;100219.16;5034308;28;20166;-71
2021/04/11 11:39:19;;;;;;;16.63;12.07;;;;;;;17.46;46.82;100227.19;5034029;28;20186;-71
2021/04/11 11:42:16;;;;;;;21.40;13.27;;;;;;;15.52;52.11;100247.72;5033278;28;20176;-71
2021/04/11 11:45:15;;;;;;;16.53;12.70;;;;;;;16.00;50.67;100228.50;5032783;28;20231;-70
2021/04/11 11:48:13;;;;;;;18.93;12.13;;;;;;;16.18;50.60;100230.47;5016972;28;20557;-70
2021/04/11 11:50:47;;;;;;;15.70;11.70;;;;;;;15.39;51.49;100218.31;5016174;28;20236;-70
2021/04/11 11:53:18;;;;;;;19.77;12.90;;;;;;;15.47;52.07;100214.97;5032977;28;20613;-70
2021/04/11 11:56:04;;;;;;;19.60;12.70;;;;;;;15.63;51.73;100220.84;5016005;28;20211;-70
2021/04/11 11:58:36;;;;;;;18.90;12.30;;;;;;;15.45;52.38;100212.41;5032634;28;20183;-70
2021/04/11 12:01:10;;;;;;;16.43;11.00;;;;;;;15.94;51.67;100217.25;5015971;28;20617;-71